sensor_id;sensor_type;location;lat;lon;timestamp;temperature;humidity
37996;DHT22;23808;50.634;6.948;2022-07-18T00:01:00;18.10;77.50
37996;DHT22;23808;50.634;6.948;2022-07-18T00:05:01;18.10;78.00
37996;DHT22;23808;50.634;6.948;2022-07-18T00:09:03;18.10;79.70
37996;DHT22;23808;50.634;6.948;2022-07-18T00:13:03;18.00;80.00
37996;DHT22;23808;50.634;6.948;2022-07-18T00:17:06;18.00;78.70
37996;DHT22;23808;50.634;6.948;2022-07-18T00:21:06;18.00;79.20
37996;DHT22;23808;50.634;6.948;2022-07-18T00:25:07;17.90;80.30
37996;DHT22;23808;50.634;6.948;2022-07-18T00:29:08;17.90;79.90
37996;DHT22;23808;50.634;6.948;2022-07-18T00:33:08;17.80;80.10
37996;DHT22;23808;50.634;6.948;2022-07-18T00:37:09;17.80;81.10
37996;DHT22;23808;50.634;6.948;2022-07-18T00:41:14;17.70;82.00
37996;DHT22;23808;50.634;6.948;2022-07-18T00:45:16;17.60;82.20
37996;DHT22;23808;50.634;6.948;2022-07-18T00:49:17;17.50;82.70
37996;DHT22;23808;50.634;6.948;2022-07-18T00:53:18;17.40;83.70
37996;DHT22;23808;50.634;6.948;2022-07-18T00:57:18;17.40;83.60
37996;DHT22;23808;50.634;6.948;2022-07-18T01:01:19;17.40;83.60
37996;DHT22;23808;50.634;6.948;2022-07-18T01:05:38;17.30;84.10
37996;DHT22;23808;50.634;6.948;2022-07-18T01:09:39;17.20;84.20
37996;DHT22;23808;50.634;6.948;2022-07-18T01:13:40;17.20;85.50
37996;DHT22;23808;50.634;6.948;2022-07-18T01:17:41;17.10;86.50
37996;DHT22;23808;50.634;6.948;2022-07-18T01:21:41;17.00;87.80
37996;DHT22;23808;50.634;6.948;2022-07-18T01:25:42;16.90;89.20
37996;DHT22;23808;50.634;6.948;2022-07-18T01:29:44;16.80;90.00
37996;DHT22;23808;50.634;6.948;2022-07-18T01:33:45;16.70;90.60
37996;DHT22;23808;50.634;6.948;2022-07-18T01:37:51;16.60;91.30
37996;DHT22;23808;50.634;6.948;2022-07-18T01:42:03;16.50;91.90
37996;DHT22;23808;50.634;6.948;2022-07-18T01:46:04;16.40;91.90
37996;DHT22;23808;50.634;6.948;2022-07-18T01:50:05;16.40;91.50
37996;DHT22;23808;50.634;6.948;2022-07-18T01:54:06;16.40;91.60
37996;DHT22;23808;50.634;6.948;2022-07-18T01:58:07;16.40;91.70
37996;DHT22;23808;50.634;6.948;2022-07-18T02:02:07;16.40;91.20
37996;DHT22;23808;50.634;6.948;2022-07-18T02:06:08;16.40;91.50
37996;DHT22;23808;50.634;6.948;2022-07-18T02:10:12;16.40;91.70
37996;DHT22;23808;50.634;6.948;2022-07-18T02:14:13;16.30;91.90
37996;DHT22;23808;50.634;6.948;2022-07-18T02:18:13;16.30;91.30
37996;DHT22;23808;50.634;6.948;2022-07-18T02:22:14;16.30;91.50
37996;DHT22;23808;50.634;6.948;2022-07-18T02:26:15;16.20;91.20
37996;DHT22;23808;50.634;6.948;2022-07-18T02:30:15;16.20;91.30
37996;DHT22;23808;50.634;6.948;2022-07-18T02:34:16;16.20;91.90
37996;DHT22;23808;50.634;6.948;2022-07-18T02:38:16;16.10;92.50
37996;DHT22;23808;50.634;6.948;2022-07-18T02:42:17;16.00;93.10
37996;DHT22;23808;50.634;6.948;2022-07-18T02:46:17;16.00;93.50
37996;DHT22;23808;50.634;6.948;2022-07-18T02:50:20;15.90;93.80
37996;DHT22;23808;50.634;6.948;2022-07-18T02:54:21;15.90;94.10
37996;DHT22;23808;50.634;6.948;2022-07-18T02:58:21;15.80;94.60
37996;DHT22;23808;50.634;6.948;2022-07-18T03:02:22;15.70;94.70
37996;DHT22;23808;50.634;6.948;2022-07-18T03:06:23;15.70;94.90
37996;DHT22;23808;50.634;6.948;2022-07-18T03:10:23;15.70;95.30
37996;DHT22;23808;50.634;6.948;2022-07-18T03:14:24;15.60;95.40
37996;DHT22;23808;50.634;6.948;2022-07-18T03:18:25;15.60;95.70
37996;DHT22;23808;50.634;6.948;2022-07-18T03:22:26;15.60;96.10
37996;DHT22;23808;50.634;6.948;2022-07-18T03:26:27;15.50;96.20
37996;DHT22;23808;50.634;6.948;2022-07-18T03:30:27;15.50;96.20
37996;DHT22;23808;50.634;6.948;2022-07-18T03:34:28;15.50;96.00
37996;DHT22;23808;50.634;6.948;2022-07-18T03:38:28;15.50;95.90
37996;DHT22;23808;50.634;6.948;2022-07-18T03:42:29;15.50;96.00
37996;DHT22;23808;50.634;6.948;2022-07-18T03:46:30;15.50;96.10
37996;DHT22;23808;50.634;6.948;2022-07-18T03:50:31;15.50;96.10
37996;DHT22;23808;50.634;6.948;2022-07-18T03:54:31;15.50;95.90
37996;DHT22;23808;50.634;6.948;2022-07-18T03:58:32;15.50;95.90
37996;DHT22;23808;50.634;6.948;2022-07-18T04:02:32;15.40;96.00
37996;DHT22;23808;50.634;6.948;2022-07-18T04:06:33;15.40;96.10
37996;DHT22;23808;50.634;6.948;2022-07-18T04:10:34;15.50;96.30
37996;DHT22;23808;50.634;6.948;2022-07-18T04:14:34;15.50;96.30
37996;DHT22;23808;50.634;6.948;2022-07-18T04:18:35;15.60;96.40
37996;DHT22;23808;50.634;6.948;2022-07-18T04:22:52;15.60;96.00
37996;DHT22;23808;50.634;6.948;2022-07-18T04:26:53;15.70;95.40
37996;DHT22;23808;50.634;6.948;2022-07-18T04:30:54;15.80;95.30
37996;DHT22;23808;50.634;6.948;2022-07-18T04:34:54;15.90;94.50
37996;DHT22;23808;50.634;6.948;2022-07-18T04:38:55;16.10;93.60
37996;DHT22;23808;50.634;6.948;2022-07-18T04:42:55;16.30;93.60
37996;DHT22;23808;50.634;6.948;2022-07-18T04:46:56;16.40;93.40
37996;DHT22;23808;50.634;6.948;2022-07-18T04:50:57;16.60;93.60
37996;DHT22;23808;50.634;6.948;2022-07-18T04:54:57;16.80;93.20
37996;DHT22;23808;50.634;6.948;2022-07-18T04:58:58;16.90;92.60
37996;DHT22;23808;50.634;6.948;2022-07-18T05:02:58;17.10;92.60
37996;DHT22;23808;50.634;6.948;2022-07-18T05:06:59;17.20;92.30
37996;DHT22;23808;50.634;6.948;2022-07-18T05:10:59;17.40;91.80
37996;DHT22;23808;50.634;6.948;2022-07-18T05:15:00;17.50;91.20
37996;DHT22;23808;50.634;6.948;2022-07-18T05:19:01;17.70;91.10
37996;DHT22;23808;50.634;6.948;2022-07-18T05:23:01;17.90;90.80
37996;DHT22;23808;50.634;6.948;2022-07-18T05:27:02;18.10;90.40
37996;DHT22;23808;50.634;6.948;2022-07-18T05:31:03;18.40;90.20
37996;DHT22;23808;50.634;6.948;2022-07-18T05:35:04;18.60;89.90
37996;DHT22;23808;50.634;6.948;2022-07-18T05:39:05;18.80;89.50
37996;DHT22;23808;50.634;6.948;2022-07-18T05:43:06;19.10;88.50
37996;DHT22;23808;50.634;6.948;2022-07-18T05:47:07;19.30;87.50
37996;DHT22;23808;50.634;6.948;2022-07-18T05:51:07;19.50;86.90
37996;DHT22;23808;50.634;6.948;2022-07-18T05:55:09;19.80;86.30
37996;DHT22;23808;50.634;6.948;2022-07-18T05:59:10;20.00;85.20
37996;DHT22;23808;50.634;6.948;2022-07-18T06:03:11;20.20;84.50
37996;DHT22;23808;50.634;6.948;2022-07-18T06:07:11;20.50;84.40
37996;DHT22;23808;50.634;6.948;2022-07-18T06:11:12;20.70;83.40
37996;DHT22;23808;50.634;6.948;2022-07-18T06:15:13;20.90;82.90
37996;DHT22;23808;50.634;6.948;2022-07-18T06:19:14;21.20;82.60
37996;DHT22;23808;50.634;6.948;2022-07-18T06:23:15;21.40;81.80
37996;DHT22;23808;50.634;6.948;2022-07-18T06:27:15;21.60;81.20
37996;DHT22;23808;50.634;6.948;2022-07-18T06:31:16;21.80;79.80
37996;DHT22;23808;50.634;6.948;2022-07-18T06:35:17;22.10;79.80
37996;DHT22;23808;50.634;6.948;2022-07-18T06:39:18;22.50;78.90
37996;DHT22;23808;50.634;6.948;2022-07-18T06:43:19;22.80;77.50
37996;DHT22;23808;50.634;6.948;2022-07-18T06:47:19;23.10;76.20
37996;DHT22;23808;50.634;6.948;2022-07-18T06:51:20;23.40;75.20
37996;DHT22;23808;50.634;6.948;2022-07-18T06:55:21;23.60;74.50
37996;DHT22;23808;50.634;6.948;2022-07-18T06:59:21;24.00;74.10
37996;DHT22;23808;50.634;6.948;2022-07-18T07:03:22;24.30;73.20
37996;DHT22;23808;50.634;6.948;2022-07-18T07:07:23;24.50;72.50
37996;DHT22;23808;50.634;6.948;2022-07-18T07:11:23;24.80;72.10
37996;DHT22;23808;50.634;6.948;2022-07-18T07:15:24;25.20;71.70
37996;DHT22;23808;50.634;6.948;2022-07-18T07:19:25;25.50;70.30
37996;DHT22;23808;50.634;6.948;2022-07-18T07:23:26;25.70;69.60
37996;DHT22;23808;50.634;6.948;2022-07-18T07:27:26;25.90;69.30
37996;DHT22;23808;50.634;6.948;2022-07-18T07:31:27;26.10;68.80
37996;DHT22;23808;50.634;6.948;2022-07-18T07:35:28;26.20;68.30
37996;DHT22;23808;50.634;6.948;2022-07-18T07:39:28;26.30;68.10
37996;DHT22;23808;50.634;6.948;2022-07-18T07:43:29;26.40;68.00
37996;DHT22;23808;50.634;6.948;2022-07-18T07:47:30;26.60;68.10
37996;DHT22;23808;50.634;6.948;2022-07-18T07:51:30;26.70;67.20
37996;DHT22;23808;50.634;6.948;2022-07-18T07:55:31;26.80;67.70
37996;DHT22;23808;50.634;6.948;2022-07-18T07:59:32;27.00;67.30
37996;DHT22;23808;50.634;6.948;2022-07-18T08:03:32;27.10;67.00
37996;DHT22;23808;50.634;6.948;2022-07-18T08:07:33;27.40;67.00
37996;DHT22;23808;50.634;6.948;2022-07-18T08:11:34;27.70;66.50
37996;DHT22;23808;50.634;6.948;2022-07-18T08:15:34;28.10;65.70
37996;DHT22;23808;50.634;6.948;2022-07-18T08:19:36;28.60;64.70
37996;DHT22;23808;50.634;6.948;2022-07-18T08:23:36;29.00;64.00
37996;DHT22;23808;50.634;6.948;2022-07-18T08:27:37;29.30;60.80
37996;DHT22;23808;50.634;6.948;2022-07-18T08:31:37;29.70;62.10
37996;DHT22;23808;50.634;6.948;2022-07-18T08:35:38;30.10;60.90
37996;DHT22;23808;50.634;6.948;2022-07-18T08:39:39;30.20;59.80
37996;DHT22;23808;50.634;6.948;2022-07-18T08:43:39;30.40;59.20
37996;DHT22;23808;50.634;6.948;2022-07-18T08:47:40;30.70;58.20
37996;DHT22;23808;50.634;6.948;2022-07-18T08:51:43;30.80;58.00
37996;DHT22;23808;50.634;6.948;2022-07-18T08:55:44;31.00;57.40
37996;DHT22;23808;50.634;6.948;2022-07-18T08:59:45;31.00;58.00
37996;DHT22;23808;50.634;6.948;2022-07-18T09:03:46;31.20;56.60
37996;DHT22;23808;50.634;6.948;2022-07-18T09:08:12;31.20;56.80
37996;DHT22;23808;50.634;6.948;2022-07-18T09:12:13;31.40;56.00
37996;DHT22;23808;50.634;6.948;2022-07-18T09:16:14;31.50;55.40
37996;DHT22;23808;50.634;6.948;2022-07-18T09:20:15;31.70;54.90
37996;DHT22;23808;50.634;6.948;2022-07-18T09:24:16;32.00;52.70
37996;DHT22;23808;50.634;6.948;2022-07-18T09:28:17;32.10;51.40
37996;DHT22;23808;50.634;6.948;2022-07-18T09:32:21;32.20;49.90
37996;DHT22;23808;50.634;6.948;2022-07-18T09:36:23;32.30;50.20
37996;DHT22;23808;50.634;6.948;2022-07-18T09:40:27;32.50;49.90
37996;DHT22;23808;50.634;6.948;2022-07-18T09:44:28;32.70;49.70
37996;DHT22;23808;50.634;6.948;2022-07-18T09:48:28;32.80;48.30
37996;DHT22;23808;50.634;6.948;2022-07-18T09:52:29;33.00;47.50
37996;DHT22;23808;50.634;6.948;2022-07-18T09:56:30;33.20;47.60
37996;DHT22;23808;50.634;6.948;2022-07-18T10:00:35;33.50;47.40
37996;DHT22;23808;50.634;6.948;2022-07-18T10:04:36;33.80;46.60
37996;DHT22;23808;50.634;6.948;2022-07-18T10:08:39;34.10;47.10
37996;DHT22;23808;50.634;6.948;2022-07-18T10:12:40;34.40;47.00
37996;DHT22;23808;50.634;6.948;2022-07-18T10:16:41;34.60;47.30
37996;DHT22;23808;50.634;6.948;2022-07-18T10:25:07;35.20;46.20
37996;DHT22;23808;50.634;6.948;2022-07-18T10:29:15;35.40;46.10
37996;DHT22;23808;50.634;6.948;2022-07-18T10:33:37;35.80;45.40
37996;DHT22;23808;50.634;6.948;2022-07-18T10:37:38;36.20;44.80
37996;DHT22;23808;50.634;6.948;2022-07-18T10:45:44;36.10;44.30
37996;DHT22;23808;50.634;6.948;2022-07-18T11:01:55;37.10;43.60
37996;DHT22;23808;50.634;6.948;2022-07-18T11:05:57;36.90;44.20
37996;DHT22;23808;50.634;6.948;2022-07-18T11:09:58;37.00;44.80
37996;DHT22;23808;50.634;6.948;2022-07-18T11:13:58;37.30;43.80
37996;DHT22;23808;50.634;6.948;2022-07-18T11:18:01;37.80;44.10
37996;DHT22;23808;50.634;6.948;2022-07-18T11:22:02;37.70;42.30
37996;DHT22;23808;50.634;6.948;2022-07-18T11:26:03;37.30;44.10
37996;DHT22;23808;50.634;6.948;2022-07-18T11:30:04;37.50;42.70
37996;DHT22;23808;50.634;6.948;2022-07-18T11:34:05;37.40;43.80
37996;DHT22;23808;50.634;6.948;2022-07-18T11:38:05;37.50;43.30
37996;DHT22;23808;50.634;6.948;2022-07-18T11:42:07;37.60;43.20
37996;DHT22;23808;50.634;6.948;2022-07-18T11:46:12;37.80;42.80
37996;DHT22;23808;50.634;6.948;2022-07-18T11:50:14;37.90;42.10
37996;DHT22;23808;50.634;6.948;2022-07-18T11:54:22;37.70;42.30
37996;DHT22;23808;50.634;6.948;2022-07-18T11:58:23;37.70;42.40
37996;DHT22;23808;50.634;6.948;2022-07-18T12:07:23;38.20;42.50
37996;DHT22;23808;50.634;6.948;2022-07-18T12:11:31;38.80;42.10
37996;DHT22;23808;50.634;6.948;2022-07-18T12:15:39;39.00;41.90
37996;DHT22;23808;50.634;6.948;2022-07-18T12:19:40;39.10;41.50
37996;DHT22;23808;50.634;6.948;2022-07-18T12:23:41;39.00;40.80
37996;DHT22;23808;50.634;6.948;2022-07-18T12:27:41;38.70;40.80
37996;DHT22;23808;50.634;6.948;2022-07-18T12:31:44;38.40;42.10
37996;DHT22;23808;50.634;6.948;2022-07-18T12:35:45;38.30;41.10
37996;DHT22;23808;50.634;6.948;2022-07-18T12:39:45;38.30;41.70
37996;DHT22;23808;50.634;6.948;2022-07-18T12:43:55;38.40;41.00
37996;DHT22;23808;50.634;6.948;2022-07-18T12:47:57;38.30;40.80
37996;DHT22;23808;50.634;6.948;2022-07-18T12:51:57;38.50;41.40
37996;DHT22;23808;50.634;6.948;2022-07-18T12:55:58;38.60;40.50
37996;DHT22;23808;50.634;6.948;2022-07-18T12:59:59;38.70;40.80
37996;DHT22;23808;50.634;6.948;2022-07-18T13:03:59;38.30;40.80
37996;DHT22;23808;50.634;6.948;2022-07-18T13:08:00;38.50;41.40
37996;DHT22;23808;50.634;6.948;2022-07-18T13:12:01;38.90;41.00
37996;DHT22;23808;50.634;6.948;2022-07-18T13:16:01;39.10;40.80
37996;DHT22;23808;50.634;6.948;2022-07-18T13:20:02;39.50;41.30
37996;DHT22;23808;50.634;6.948;2022-07-18T13:24:04;39.30;40.00
37996;DHT22;23808;50.634;6.948;2022-07-18T13:28:05;38.80;40.30
37996;DHT22;23808;50.634;6.948;2022-07-18T13:32:06;38.70;41.00
37996;DHT22;23808;50.634;6.948;2022-07-18T13:36:06;39.00;41.70
37996;DHT22;23808;50.634;6.948;2022-07-18T13:40:08;39.30;40.20
37996;DHT22;23808;50.634;6.948;2022-07-18T13:44:09;39.20;40.20
37996;DHT22;23808;50.634;6.948;2022-07-18T13:48:09;39.40;40.70
37996;DHT22;23808;50.634;6.948;2022-07-18T13:52:10;39.40;40.50
37996;DHT22;23808;50.634;6.948;2022-07-18T13:56:11;39.40;40.20
37996;DHT22;23808;50.634;6.948;2022-07-18T14:00:12;39.60;40.60
37996;DHT22;23808;50.634;6.948;2022-07-18T14:04:13;39.70;40.70
37996;DHT22;23808;50.634;6.948;2022-07-18T14:08:13;39.70;40.20
37996;DHT22;23808;50.634;6.948;2022-07-18T14:12:14;39.80;39.90
37996;DHT22;23808;50.634;6.948;2022-07-18T14:16:15;39.70;40.10
37996;DHT22;23808;50.634;6.948;2022-07-18T14:20:15;39.70;40.80
37996;DHT22;23808;50.634;6.948;2022-07-18T14:24:16;39.80;40.20
37996;DHT22;23808;50.634;6.948;2022-07-18T14:28:17;39.80;40.20
37996;DHT22;23808;50.634;6.948;2022-07-18T14:32:18;40.10;40.60
37996;DHT22;23808;50.634;6.948;2022-07-18T14:36:18;40.30;40.10
37996;DHT22;23808;50.634;6.948;2022-07-18T14:40:19;40.60;40.00
37996;DHT22;23808;50.634;6.948;2022-07-18T14:44:19;40.60;39.20
37996;DHT22;23808;50.634;6.948;2022-07-18T14:48:20;40.10;39.30
37996;DHT22;23808;50.634;6.948;2022-07-18T14:52:21;39.70;40.00
37996;DHT22;23808;50.634;6.948;2022-07-18T14:56:21;39.90;39.90
37996;DHT22;23808;50.634;6.948;2022-07-18T15:00:25;39.90;39.90
37996;DHT22;23808;50.634;6.948;2022-07-18T15:04:26;40.10;39.40
37996;DHT22;23808;50.634;6.948;2022-07-18T15:08:26;40.20;39.40
37996;DHT22;23808;50.634;6.948;2022-07-18T15:12:27;40.20;40.10
37996;DHT22;23808;50.634;6.948;2022-07-18T15:16:28;40.30;40.50
37996;DHT22;23808;50.634;6.948;2022-07-18T15:20:29;40.30;38.80
37996;DHT22;23808;50.634;6.948;2022-07-18T15:24:30;40.00;39.40
37996;DHT22;23808;50.634;6.948;2022-07-18T15:28:30;39.70;39.40
37996;DHT22;23808;50.634;6.948;2022-07-18T15:32:31;39.40;39.50
37996;DHT22;23808;50.634;6.948;2022-07-18T15:36:32;39.60;39.90
37996;DHT22;23808;50.634;6.948;2022-07-18T15:40:32;39.70;39.80
37996;DHT22;23808;50.634;6.948;2022-07-18T15:44:33;39.90;40.60
37996;DHT22;23808;50.634;6.948;2022-07-18T15:48:39;39.90;39.00
37996;DHT22;23808;50.634;6.948;2022-07-18T15:52:40;39.80;39.30
37996;DHT22;23808;50.634;6.948;2022-07-18T15:56:41;39.60;39.10
37996;DHT22;23808;50.634;6.948;2022-07-18T16:00:42;39.40;39.80
37996;DHT22;23808;50.634;6.948;2022-07-18T16:04:42;39.60;39.60
37996;DHT22;23808;50.634;6.948;2022-07-18T16:08:43;39.50;39.00
37996;DHT22;23808;50.634;6.948;2022-07-18T16:12:43;39.20;39.80
37996;DHT22;23808;50.634;6.948;2022-07-18T16:16:44;39.10;39.90
37996;DHT22;23808;50.634;6.948;2022-07-18T16:20:45;39.10;39.50
37996;DHT22;23808;50.634;6.948;2022-07-18T16:24:46;39.10;39.70
37996;DHT22;23808;50.634;6.948;2022-07-18T16:28:53;39.10;40.00
37996;DHT22;23808;50.634;6.948;2022-07-18T16:32:54;39.20;39.90
37996;DHT22;23808;50.634;6.948;2022-07-18T16:36:56;39.10;39.40
37996;DHT22;23808;50.634;6.948;2022-07-18T16:40:57;38.80;39.40
37996;DHT22;23808;50.634;6.948;2022-07-18T16:44:58;38.50;39.60
37996;DHT22;23808;50.634;6.948;2022-07-18T16:48:59;38.40;40.00
37996;DHT22;23808;50.634;6.948;2022-07-18T16:53:00;38.30;40.70
37996;DHT22;23808;50.634;6.948;2022-07-18T16:57:01;38.40;41.00
37996;DHT22;23808;50.634;6.948;2022-07-18T17:01:03;38.60;40.50
37996;DHT22;23808;50.634;6.948;2022-07-18T17:05:04;38.50;40.10
37996;DHT22;23808;50.634;6.948;2022-07-18T17:09:06;38.30;39.70
37996;DHT22;23808;50.634;6.948;2022-07-18T17:13:07;38.00;40.30
37996;DHT22;23808;50.634;6.948;2022-07-18T17:17:08;37.90;40.70
37996;DHT22;23808;50.634;6.948;2022-07-18T17:21:09;37.90;41.00
37996;DHT22;23808;50.634;6.948;2022-07-18T17:25:11;37.90;40.50
37996;DHT22;23808;50.634;6.948;2022-07-18T17:29:14;37.80;40.40
37996;DHT22;23808;50.634;6.948;2022-07-18T17:33:15;37.70;40.80
37996;DHT22;23808;50.634;6.948;2022-07-18T17:37:16;37.70;40.50
37996;DHT22;23808;50.634;6.948;2022-07-18T17:41:18;37.50;40.10
37996;DHT22;23808;50.634;6.948;2022-07-18T17:45:19;37.20;40.60
37996;DHT22;23808;50.634;6.948;2022-07-18T17:49:24;37.00;41.10
37996;DHT22;23808;50.634;6.948;2022-07-18T17:53:26;36.90;41.20
37996;DHT22;23808;50.634;6.948;2022-07-18T17:57:27;36.70;41.40
37996;DHT22;23808;50.634;6.948;2022-07-18T18:01:28;36.50;41.60
37996;DHT22;23808;50.634;6.948;2022-07-18T18:05:28;36.30;41.50
37996;DHT22;23808;50.634;6.948;2022-07-18T18:09:29;36.00;41.70
37996;DHT22;23808;50.634;6.948;2022-07-18T18:13:29;35.80;42.60
37996;DHT22;23808;50.634;6.948;2022-07-18T18:17:30;35.60;44.30
37996;DHT22;23808;50.634;6.948;2022-07-18T18:21:31;35.40;44.00
37996;DHT22;23808;50.634;6.948;2022-07-18T18:25:32;35.20;46.20
37996;DHT22;23808;50.634;6.948;2022-07-18T18:29:32;34.90;47.10
37996;DHT22;23808;50.634;6.948;2022-07-18T18:33:33;34.60;48.00
37996;DHT22;23808;50.634;6.948;2022-07-18T18:37:34;34.30;48.10
37996;DHT22;23808;50.634;6.948;2022-07-18T18:41:35;34.10;50.00
37996;DHT22;23808;50.634;6.948;2022-07-18T18:45:36;33.80;50.30
37996;DHT22;23808;50.634;6.948;2022-07-18T18:49:37;33.60;50.70
37996;DHT22;23808;50.634;6.948;2022-07-18T18:53:37;33.20;51.70
37996;DHT22;23808;50.634;6.948;2022-07-18T18:57:38;32.80;50.80
37996;DHT22;23808;50.634;6.948;2022-07-18T19:01:39;32.50;52.00
37996;DHT22;23808;50.634;6.948;2022-07-18T19:05:39;32.10;53.20
37996;DHT22;23808;50.634;6.948;2022-07-18T19:09:40;31.70;53.50
37996;DHT22;23808;50.634;6.948;2022-07-18T19:13:41;31.30;55.30
37996;DHT22;23808;50.634;6.948;2022-07-18T19:17:41;30.80;54.90
37996;DHT22;23808;50.634;6.948;2022-07-18T19:21:42;30.50;55.50
37996;DHT22;23808;50.634;6.948;2022-07-18T19:25:43;30.20;56.70
37996;DHT22;23808;50.634;6.948;2022-07-18T19:29:43;30.00;58.20
37996;DHT22;23808;50.634;6.948;2022-07-18T19:33:44;29.80;58.00
37996;DHT22;23808;50.634;6.948;2022-07-18T19:37:45;29.60;60.70
37996;DHT22;23808;50.634;6.948;2022-07-18T19:41:46;29.30;59.60
37996;DHT22;23808;50.634;6.948;2022-07-18T19:45:47;29.00;58.70
37996;DHT22;23808;50.634;6.948;2022-07-18T19:49:48;28.90;58.20
37996;DHT22;23808;50.634;6.948;2022-07-18T19:53:48;28.70;61.20
37996;DHT22;23808;50.634;6.948;2022-07-18T19:57:49;28.60;61.40
37996;DHT22;23808;50.634;6.948;2022-07-18T20:01:50;28.30;58.70
37996;DHT22;23808;50.634;6.948;2022-07-18T20:05:51;28.20;58.70
37996;DHT22;23808;50.634;6.948;2022-07-18T20:09:51;28.00;58.20
37996;DHT22;23808;50.634;6.948;2022-07-18T20:13:52;27.90;59.00
37996;DHT22;23808;50.634;6.948;2022-07-18T20:17:53;27.70;59.50
37996;DHT22;23808;50.634;6.948;2022-07-18T20:21:54;27.60;60.00
37996;DHT22;23808;50.634;6.948;2022-07-18T20:25:56;27.40;59.80
37996;DHT22;23808;50.634;6.948;2022-07-18T20:29:56;27.20;60.20
37996;DHT22;23808;50.634;6.948;2022-07-18T20:33:57;27.00;60.10
37996;DHT22;23808;50.634;6.948;2022-07-18T20:37:58;26.90;61.30
37996;DHT22;23808;50.634;6.948;2022-07-18T20:41:59;26.70;59.40
37996;DHT22;23808;50.634;6.948;2022-07-18T20:45:59;26.60;59.80
37996;DHT22;23808;50.634;6.948;2022-07-18T20:50:00;26.50;60.70
37996;DHT22;23808;50.634;6.948;2022-07-18T20:54:01;26.40;59.40
37996;DHT22;23808;50.634;6.948;2022-07-18T20:58:02;26.30;58.20
37996;DHT22;23808;50.634;6.948;2022-07-18T21:02:02;26.20;59.00
37996;DHT22;23808;50.634;6.948;2022-07-18T21:06:03;26.20;59.10
37996;DHT22;23808;50.634;6.948;2022-07-18T21:10:05;26.10;58.90
37996;DHT22;23808;50.634;6.948;2022-07-18T21:14:06;25.90;59.20
37996;DHT22;23808;50.634;6.948;2022-07-18T21:18:25;25.80;59.30
37996;DHT22;23808;50.634;6.948;2022-07-18T21:22:25;25.70;60.80
37996;DHT22;23808;50.634;6.948;2022-07-18T21:26:26;25.60;61.10
37996;DHT22;23808;50.634;6.948;2022-07-18T21:30:27;25.40;62.70
37996;DHT22;23808;50.634;6.948;2022-07-18T21:34:27;25.20;61.80
37996;DHT22;23808;50.634;6.948;2022-07-18T21:38:28;25.10;62.10
37996;DHT22;23808;50.634;6.948;2022-07-18T21:42:28;24.90;64.10
37996;DHT22;23808;50.634;6.948;2022-07-18T21:46:29;24.80;63.30
37996;DHT22;23808;50.634;6.948;2022-07-18T21:50:30;24.70;66.50
37996;DHT22;23808;50.634;6.948;2022-07-18T21:54:30;24.50;65.20
37996;DHT22;23808;50.634;6.948;2022-07-18T21:58:31;24.40;65.00
37996;DHT22;23808;50.634;6.948;2022-07-18T22:02:31;24.30;63.60
37996;DHT22;23808;50.634;6.948;2022-07-18T22:06:32;24.20;64.30
37996;DHT22;23808;50.634;6.948;2022-07-18T22:10:33;24.10;66.00
37996;DHT22;23808;50.634;6.948;2022-07-18T22:14:34;24.00;69.70
37996;DHT22;23808;50.634;6.948;2022-07-18T22:18:35;23.80;69.90
37996;DHT22;23808;50.634;6.948;2022-07-18T22:22:36;23.60;71.20
37996;DHT22;23808;50.634;6.948;2022-07-18T22:26:37;23.40;72.50
37996;DHT22;23808;50.634;6.948;2022-07-18T22:30:38;23.30;74.10
37996;DHT22;23808;50.634;6.948;2022-07-18T22:34:38;23.10;75.60
37996;DHT22;23808;50.634;6.948;2022-07-18T22:38:39;22.90;76.00
37996;DHT22;23808;50.634;6.948;2022-07-18T22:42:41;22.80;77.00
37996;DHT22;23808;50.634;6.948;2022-07-18T22:46:42;22.60;77.00
37996;DHT22;23808;50.634;6.948;2022-07-18T22:50:43;22.50;77.50
37996;DHT22;23808;50.634;6.948;2022-07-18T22:54:44;22.40;78.50
37996;DHT22;23808;50.634;6.948;2022-07-18T22:58:44;22.20;80.60
37996;DHT22;23808;50.634;6.948;2022-07-18T23:02:45;22.10;81.60
37996;DHT22;23808;50.634;6.948;2022-07-18T23:06:45;22.00;81.70
37996;DHT22;23808;50.634;6.948;2022-07-18T23:10:46;21.90;82.30
37996;DHT22;23808;50.634;6.948;2022-07-18T23:14:47;21.80;83.10
37996;DHT22;23808;50.634;6.948;2022-07-18T23:18:48;21.70;84.50
37996;DHT22;23808;50.634;6.948;2022-07-18T23:22:49;21.60;84.80
37996;DHT22;23808;50.634;6.948;2022-07-18T23:26:49;21.60;85.40
37996;DHT22;23808;50.634;6.948;2022-07-18T23:30:50;21.40;86.70
37996;DHT22;23808;50.634;6.948;2022-07-18T23:34:51;21.40;86.80
37996;DHT22;23808;50.634;6.948;2022-07-18T23:38:51;21.30;88.00
37996;DHT22;23808;50.634;6.948;2022-07-18T23:42:52;21.10;89.90
37996;DHT22;23808;50.634;6.948;2022-07-18T23:46:52;21.10;88.50
37996;DHT22;23808;50.634;6.948;2022-07-18T23:50:53;21.00;90.40
37996;DHT22;23808;50.634;6.948;2022-07-18T23:54:54;21.00;90.50
37996;DHT22;23808;50.634;6.948;2022-07-18T23:58:54;20.90;91.20
